createdAt,value
2018-09-23T00:00:18.248Z,23.96
2018-09-23T00:02:44.584Z,23.94
2018-09-23T00:05:12.004Z,23.93
2018-09-23T00:07:38.327Z,23.93
2018-09-23T00:10:04.663Z,23.94
2018-09-23T00:12:31.026Z,23.92
2018-09-23T00:14:57.520Z,23.93
2018-09-23T00:17:23.849Z,23.93
2018-09-23T00:19:50.183Z,23.93
2018-09-23T00:22:16.629Z,23.92
2018-09-23T00:24:43.163Z,23.91
2018-09-23T00:27:09.522Z,23.90
2018-09-23T00:29:35.852Z,23.88
2018-09-23T00:32:02.238Z,23.88
2018-09-23T00:34:28.617Z,23.87
2018-09-23T00:36:54.957Z,23.88
2018-09-23T00:39:21.366Z,23.86
2018-09-23T00:41:47.711Z,23.84
2018-09-23T00:44:14.062Z,23.85
2018-09-23T00:46:40.479Z,23.85
2018-09-23T00:49:06.845Z,23.83
2018-09-23T00:51:33.225Z,23.83
2018-09-23T00:53:59.562Z,23.82
2018-09-23T00:56:25.944Z,23.84
2018-09-23T00:58:52.364Z,23.84
2018-09-23T01:01:18.712Z,23.84
2018-09-23T01:03:45.075Z,23.83
2018-09-23T01:06:11.412Z,23.80
2018-09-23T01:08:37.743Z,23.81
2018-09-23T01:11:04.133Z,23.81
2018-09-23T01:13:30.548Z,23.82
2018-09-23T01:15:56.932Z,23.79
2018-09-23T01:18:23.252Z,23.79
2018-09-23T01:20:49.583Z,23.77
2018-09-23T01:23:16.057Z,23.77
2018-09-23T01:25:42.451Z,23.76
2018-09-23T01:28:08.916Z,23.77
2018-09-23T01:30:35.305Z,23.77
2018-09-23T01:33:01.649Z,23.76
2018-09-23T01:35:28.053Z,23.75
2018-09-23T01:37:54.415Z,23.74
2018-09-23T01:40:20.752Z,23.74
2018-09-23T01:42:47.166Z,23.74
2018-09-23T01:45:13.506Z,23.75
2018-09-23T01:47:39.917Z,23.74
2018-09-23T01:50:06.262Z,23.73
2018-09-23T01:52:32.592Z,23.72
2018-09-23T01:54:58.984Z,23.72
2018-09-23T01:57:25.432Z,23.71
2018-09-23T01:59:51.792Z,23.71
2018-09-23T02:02:18.118Z,23.70
2018-09-23T02:04:44.489Z,23.71
2018-09-23T02:07:10.846Z,23.70
2018-09-23T02:09:37.224Z,23.69
2018-09-23T02:12:03.544Z,23.71
2018-09-23T02:14:29.905Z,23.69
2018-09-23T02:16:56.243Z,23.67
2018-09-23T02:19:22.603Z,23.68
2018-09-23T02:21:48.987Z,23.66
2018-09-23T02:24:15.345Z,23.67
2018-09-23T02:26:41.724Z,23.65
2018-09-23T02:29:08.055Z,23.65
2018-09-23T02:31:34.434Z,23.66
2018-09-23T02:34:00.767Z,23.64
2018-09-23T02:36:27.156Z,23.67
2018-09-23T02:38:53.479Z,23.64
2018-09-23T02:41:19.870Z,23.65
2018-09-23T02:43:46.272Z,23.62
2018-09-23T02:46:12.675Z,23.62
2018-09-23T02:48:39.113Z,23.60
2018-09-23T02:51:05.445Z,23.59
2018-09-23T02:53:31.807Z,23.61
2018-09-23T02:55:58.148Z,23.61
2018-09-23T02:58:24.522Z,23.61
2018-09-23T03:00:50.856Z,23.61
2018-09-23T03:03:17.248Z,23.60
2018-09-23T03:05:43.559Z,23.57
2018-09-23T03:08:09.956Z,23.58
2018-09-23T03:10:36.303Z,23.58
2018-09-23T03:13:02.723Z,23.58
2018-09-23T03:15:29.055Z,23.58
2018-09-23T03:17:55.394Z,23.57
2018-09-23T03:20:21.749Z,23.56
2018-09-23T03:22:48.082Z,23.55
2018-09-23T03:25:14.533Z,23.53
2018-09-23T03:27:40.968Z,23.54
2018-09-23T03:30:07.369Z,23.56
2018-09-23T03:32:33.717Z,23.54
2018-09-23T03:35:00.084Z,23.55
2018-09-23T03:37:26.517Z,23.52
2018-09-23T03:39:52.957Z,23.51
2018-09-23T03:42:19.357Z,23.41
2018-09-23T03:44:45.751Z,23.50
2018-09-23T03:47:12.099Z,23.52
2018-09-23T03:49:38.501Z,23.51
2018-09-23T03:52:04.875Z,23.53
2018-09-23T03:54:31.220Z,23.49
2018-09-23T03:56:57.551Z,23.49
2018-09-23T03:59:23.887Z,23.50
2018-09-23T04:01:50.280Z,23.50
2018-09-23T04:04:16.622Z,23.49
2018-09-23T04:06:42.984Z,23.49
2018-09-23T04:09:09.315Z,23.47
2018-09-23T04:11:35.658Z,23.45
2018-09-23T04:14:02.008Z,23.44
2018-09-23T04:16:28.408Z,23.47
2018-09-23T04:18:54.869Z,23.49
2018-09-23T04:21:21.241Z,23.48
2018-09-23T04:23:47.613Z,23.47
2018-09-23T04:26:13.948Z,23.46
2018-09-23T04:28:40.279Z,23.43
2018-09-23T04:31:06.633Z,23.43
2018-09-23T04:33:33.043Z,23.44
2018-09-23T04:35:59.381Z,23.47
2018-09-23T04:38:25.747Z,23.49
2018-09-23T04:40:52.151Z,23.47
2018-09-23T04:43:18.483Z,23.46
2018-09-23T04:45:44.811Z,23.48
2018-09-23T04:48:11.215Z,23.54
2018-09-23T04:50:37.544Z,23.60
2018-09-23T04:53:03.904Z,23.62
2018-09-23T04:55:30.293Z,23.64
2018-09-23T04:57:56.675Z,23.66
2018-09-23T05:00:23.033Z,23.68
2018-09-23T05:02:49.437Z,23.71
2018-09-23T05:05:15.782Z,23.73
2018-09-23T05:07:42.185Z,23.78
2018-09-23T05:10:08.538Z,23.79
2018-09-23T05:12:34.881Z,23.83
2018-09-23T05:15:01.216Z,23.90
2018-09-23T05:17:27.564Z,23.92
2018-09-23T05:19:53.921Z,23.94
2018-09-23T05:22:20.312Z,23.95
2018-09-23T05:24:46.745Z,23.97
2018-09-23T05:27:13.125Z,24.01
2018-09-23T05:29:39.789Z,24.02
2018-09-23T05:32:06.140Z,24.04
2018-09-23T05:34:32.464Z,24.08
2018-09-23T05:36:58.782Z,24.10
2018-09-23T05:39:25.215Z,24.16
2018-09-23T05:41:51.566Z,24.20
2018-09-23T05:44:17.948Z,24.23
2018-09-23T05:46:44.317Z,24.23
2018-09-23T05:49:10.639Z,24.26
2018-09-23T05:51:36.969Z,24.28
2018-09-23T05:54:03.323Z,24.32
2018-09-23T05:56:29.763Z,24.35
2018-09-23T05:58:56.279Z,24.40
2018-09-23T06:01:22.617Z,24.42
2018-09-23T06:03:48.932Z,24.45
2018-09-23T06:06:15.300Z,24.49
2018-09-23T06:08:41.676Z,24.51
2018-09-23T06:11:08.034Z,24.53
2018-09-23T06:13:34.432Z,24.55
2018-09-23T06:16:00.780Z,24.57
2018-09-23T06:18:27.189Z,24.61
2018-09-23T06:20:53.496Z,24.63
2018-09-23T06:23:19.915Z,24.63
2018-09-23T06:25:46.311Z,24.65
2018-09-23T06:28:12.643Z,24.68
2018-09-23T06:30:39.000Z,24.69
2018-09-23T06:33:05.356Z,24.71
2018-09-23T06:35:31.705Z,24.74
2018-09-23T06:37:58.115Z,24.75
2018-09-23T06:40:24.473Z,24.78
2018-09-23T06:42:50.882Z,24.81
2018-09-23T06:45:17.212Z,24.82
2018-09-23T06:47:43.587Z,24.84
2018-09-23T06:50:10.016Z,24.83
2018-09-23T06:52:36.380Z,24.83
2018-09-23T06:55:02.741Z,24.87
2018-09-23T06:57:29.092Z,24.89
2018-09-23T06:59:55.500Z,24.92
2018-09-23T07:02:21.932Z,24.96
2018-09-23T07:04:48.335Z,24.96
2018-09-23T07:07:14.695Z,24.96
2018-09-23T07:09:41.065Z,24.97
2018-09-23T07:12:07.426Z,25.00
2018-09-23T07:14:33.748Z,25.01
2018-09-23T07:17:00.112Z,25.03
2018-09-23T07:19:26.480Z,25.04
2018-09-23T07:21:52.850Z,25.05
2018-09-23T07:24:19.212Z,25.06
2018-09-23T07:26:45.542Z,25.07
2018-09-23T07:29:11.951Z,25.09
2018-09-23T07:31:38.324Z,25.11
2018-09-23T07:34:04.668Z,25.13
2018-09-23T07:36:31.067Z,25.16
2018-09-23T07:38:57.388Z,25.16
2018-09-23T07:41:23.727Z,25.16
2018-09-23T07:43:50.057Z,25.17
2018-09-23T07:46:16.829Z,25.17
2018-09-23T07:48:43.199Z,25.18
2018-09-23T07:51:09.576Z,25.20
2018-09-23T07:53:35.961Z,25.21
2018-09-23T07:56:02.390Z,25.22
2018-09-23T07:58:28.721Z,25.23
2018-09-23T08:00:55.100Z,25.24
2018-09-23T08:03:21.656Z,25.24
2018-09-23T08:05:48.024Z,25.25
2018-09-23T08:08:14.395Z,25.23
2018-09-23T08:10:40.820Z,25.28
2018-09-23T08:13:07.345Z,25.29
2018-09-23T08:15:33.591Z,25.28
2018-09-23T08:17:59.948Z,25.30
2018-09-23T08:20:26.508Z,25.32
2018-09-23T08:22:52.711Z,25.31
2018-09-23T08:25:19.161Z,25.31
2018-09-23T08:27:45.516Z,25.31
2018-09-23T08:30:11.842Z,25.31
2018-09-23T08:32:38.337Z,25.31
2018-09-23T08:35:04.935Z,25.31
2018-09-23T08:37:31.648Z,25.32
2018-09-23T08:39:58.136Z,25.33
2018-09-23T08:42:24.446Z,25.34
2018-09-23T08:44:50.778Z,25.34
2018-09-23T08:47:17.132Z,25.34
2018-09-23T08:49:43.529Z,25.33
2018-09-23T08:52:09.938Z,25.33
2018-09-23T08:54:36.407Z,25.33
2018-09-23T08:57:02.752Z,25.34
2018-09-23T08:59:29.085Z,25.32
2018-09-23T09:01:55.470Z,25.33
2018-09-23T09:04:21.802Z,25.34
2018-09-23T09:06:48.164Z,25.36
2018-09-23T09:09:14.848Z,25.33
2018-09-23T09:11:41.253Z,25.36
2018-09-23T09:14:07.637Z,25.36
2018-09-23T09:16:33.995Z,25.36
2018-09-23T09:19:00.345Z,25.38
2018-09-23T09:21:26.767Z,25.40
2018-09-23T09:23:53.177Z,25.40
2018-09-23T09:26:19.612Z,25.40
2018-09-23T09:28:45.952Z,25.38
2018-09-23T09:31:12.306Z,25.39
2018-09-23T09:33:38.632Z,25.40
2018-09-23T09:36:05.048Z,25.40
2018-09-23T09:38:31.484Z,25.40
2018-09-23T09:40:57.874Z,25.43
2018-09-23T09:43:24.230Z,25.43
2018-09-23T09:45:50.564Z,25.45
2018-09-23T09:48:16.931Z,25.46
2018-09-23T09:50:43.267Z,25.47
2018-09-23T09:53:09.609Z,25.47
2018-09-23T09:55:35.943Z,25.51
2018-09-23T09:58:02.288Z,25.48
2018-09-23T10:00:28.636Z,25.49
2018-09-23T10:02:55.071Z,25.50
2018-09-23T10:05:21.406Z,25.54
2018-09-23T10:07:47.772Z,25.52
2018-09-23T10:10:14.240Z,25.53
2018-09-23T10:12:40.630Z,25.54
2018-09-23T10:15:06.969Z,25.56
2018-09-23T10:17:33.328Z,25.56
2018-09-23T10:19:59.686Z,25.55
2018-09-23T10:22:26.048Z,25.55
2018-09-23T10:24:52.404Z,25.57
2018-09-23T10:27:18.779Z,25.58
2018-09-23T10:29:45.144Z,25.59
2018-09-23T10:32:11.496Z,25.60
2018-09-23T10:34:37.834Z,25.62
2018-09-23T10:37:04.164Z,25.63
2018-09-23T10:39:30.511Z,25.64
2018-09-23T10:41:56.835Z,25.67
2018-09-23T10:44:23.200Z,25.67
2018-09-23T10:46:49.572Z,25.69
2018-09-23T10:49:15.932Z,25.71
2018-09-23T10:51:42.303Z,25.71
2018-09-23T10:54:08.652Z,25.72
2018-09-23T10:56:35.160Z,25.74
2018-09-23T10:59:01.497Z,25.77
2018-09-23T11:01:27.953Z,25.76
2018-09-23T11:03:54.372Z,25.78
2018-09-23T11:06:20.759Z,25.77
2018-09-23T11:08:47.153Z,25.79
2018-09-23T11:11:13.467Z,25.81
2018-09-23T11:13:39.848Z,25.80
2018-09-23T11:16:06.204Z,25.83
2018-09-23T11:18:32.655Z,25.84
2018-09-23T11:21:00.112Z,25.85
2018-09-23T11:23:26.580Z,25.86
2018-09-23T11:25:53.078Z,25.85
2018-09-23T11:28:19.618Z,25.88
2018-09-23T11:30:46.020Z,25.88
2018-09-23T11:33:12.363Z,25.92
2018-09-23T11:35:38.706Z,25.92
2018-09-23T11:38:05.111Z,25.92
2018-09-23T11:40:31.479Z,25.92
2018-09-23T11:42:57.953Z,25.94
2018-09-23T11:45:24.296Z,25.94
2018-09-23T11:47:50.675Z,25.94
2018-09-23T11:50:17.095Z,25.97
2018-09-23T11:52:43.473Z,25.99
2018-09-23T11:55:09.840Z,25.99
2018-09-23T11:57:36.200Z,26.00
2018-09-23T12:00:02.573Z,26.00
2018-09-23T12:02:28.931Z,26.03
2018-09-23T12:04:55.512Z,26.03
2018-09-23T12:07:21.876Z,26.04
2018-09-23T12:09:48.283Z,26.05
2018-09-23T12:12:14.669Z,26.06
2018-09-23T12:14:41.026Z,26.10
2018-09-23T12:17:07.396Z,26.09
2018-09-23T12:19:33.728Z,26.10
2018-09-23T12:22:00.091Z,26.13
2018-09-23T12:24:26.662Z,26.11
2018-09-23T12:26:52.986Z,26.17
2018-09-23T12:29:19.380Z,26.18
2018-09-23T12:31:45.716Z,26.19
2018-09-23T12:34:12.125Z,26.20
2018-09-23T12:36:38.467Z,26.23
2018-09-23T12:39:05.019Z,26.24
2018-09-23T12:41:31.436Z,26.24
2018-09-23T12:43:57.806Z,26.25
2018-09-23T12:46:24.172Z,26.27
2018-09-23T12:48:50.504Z,26.27
2018-09-23T12:51:16.898Z,26.30
2018-09-23T12:53:43.257Z,26.31
2018-09-23T12:56:09.775Z,26.32
2018-09-23T12:58:36.172Z,26.32
2018-09-23T13:01:02.524Z,26.35
2018-09-23T13:03:28.956Z,26.36
2018-09-23T13:05:55.298Z,26.37
2018-09-23T13:08:21.687Z,26.39
2018-09-23T13:10:48.075Z,26.41
2018-09-23T13:13:14.497Z,26.42
2018-09-23T13:15:41.032Z,26.41
2018-09-23T13:18:07.478Z,26.43
2018-09-23T13:20:33.835Z,26.44
2018-09-23T13:23:00.211Z,26.44
2018-09-23T13:25:26.563Z,26.45
2018-09-23T13:27:52.941Z,26.47
2018-09-23T13:30:19.367Z,26.49
2018-09-23T13:32:45.829Z,26.48
2018-09-23T13:35:12.346Z,26.50
2018-09-23T13:37:38.766Z,26.52
2018-09-23T13:40:05.126Z,26.53
2018-09-23T13:42:31.534Z,26.54
2018-09-23T13:44:57.895Z,26.56
2018-09-23T13:47:24.275Z,26.57
2018-09-23T13:49:50.679Z,26.57
2018-09-23T13:52:17.059Z,26.57
2018-09-23T13:54:43.397Z,26.60
2018-09-23T13:57:09.803Z,26.61
2018-09-23T13:59:36.151Z,26.61
2018-09-23T14:02:02.502Z,26.62
2018-09-23T14:04:28.918Z,26.63
2018-09-23T14:06:55.380Z,26.63
2018-09-23T14:09:21.720Z,26.65
2018-09-23T14:11:48.084Z,26.66
2018-09-23T14:14:14.660Z,26.67
2018-09-23T14:16:41.028Z,26.68
2018-09-23T14:19:07.384Z,26.68
2018-09-23T14:21:33.817Z,26.69
2018-09-23T14:24:00.220Z,26.69
2018-09-23T14:26:26.581Z,26.70
2018-09-23T14:28:52.945Z,26.70
2018-09-23T14:31:19.295Z,26.72
2018-09-23T14:33:45.679Z,26.73
2018-09-23T14:36:12.018Z,26.75
2018-09-23T14:38:38.401Z,26.75
2018-09-23T14:41:04.763Z,26.76
2018-09-23T14:43:31.263Z,26.76
2018-09-23T14:45:57.624Z,26.77
2018-09-23T14:48:24.027Z,26.77
2018-09-23T14:50:50.413Z,26.79
2018-09-23T14:53:16.757Z,26.80
2018-09-23T14:55:43.131Z,26.81
2018-09-23T14:58:09.510Z,26.70
2018-09-23T15:00:36.180Z,26.80
2018-09-23T15:03:02.604Z,26.81
2018-09-23T15:05:28.993Z,26.81
2018-09-23T15:07:55.395Z,26.82
2018-09-23T15:10:21.724Z,26.82
2018-09-23T15:12:48.055Z,26.83
2018-09-23T15:15:14.403Z,26.84
2018-09-23T15:17:40.791Z,26.84
2018-09-23T15:20:07.187Z,26.84
2018-09-23T15:22:33.547Z,26.85
2018-09-23T15:24:59.907Z,26.85
2018-09-23T15:27:26.291Z,26.85
2018-09-23T15:29:52.708Z,26.85
2018-09-23T15:32:19.058Z,26.86
2018-09-23T15:34:45.404Z,26.87
2018-09-23T15:37:11.899Z,26.84
2018-09-23T15:39:38.271Z,26.87
2018-09-23T15:42:04.595Z,26.85
2018-09-23T15:44:30.971Z,26.83
2018-09-23T15:46:57.329Z,26.85
2018-09-23T15:49:23.692Z,26.82
2018-09-23T15:51:50.076Z,26.81
2018-09-23T15:54:16.523Z,26.78
2018-09-23T15:56:42.870Z,26.80
2018-09-23T15:59:09.243Z,26.84
2018-09-23T16:01:35.581Z,26.83
2018-09-23T16:04:01.906Z,26.84
2018-09-23T16:06:28.279Z,26.84
2018-09-23T16:08:54.714Z,26.83
2018-09-23T16:11:21.111Z,26.79
2018-09-23T16:13:47.526Z,26.80
2018-09-23T16:16:13.879Z,26.80
2018-09-23T16:18:40.409Z,26.80
2018-09-23T16:21:06.639Z,26.80
2018-09-23T16:23:32.998Z,26.80
2018-09-23T16:25:59.492Z,26.80
2018-09-23T16:28:25.796Z,26.79
2018-09-23T16:30:52.176Z,26.77
2018-09-23T16:33:18.536Z,26.76
2018-09-23T16:35:44.941Z,26.74
2018-09-23T16:38:11.310Z,26.71
2018-09-23T16:40:37.692Z,26.72
2018-09-23T16:43:04.060Z,26.70
2018-09-23T16:45:30.445Z,26.69
2018-09-23T16:47:56.799Z,26.68
2018-09-23T16:50:23.136Z,26.67
2018-09-23T16:52:49.512Z,26.65
2018-09-23T16:55:15.923Z,26.63
2018-09-23T16:57:42.285Z,26.63
2018-09-23T17:00:08.667Z,26.61
2018-09-23T17:02:35.014Z,26.60
2018-09-23T17:05:02.010Z,26.58
2018-09-23T17:07:28.438Z,26.55
2018-09-23T17:09:54.835Z,26.56
2018-09-23T17:12:21.192Z,26.53
2018-09-23T17:14:47.612Z,26.49
2018-09-23T17:17:14.030Z,26.45
2018-09-23T17:19:40.382Z,26.50
2018-09-23T17:22:06.768Z,26.45
2018-09-23T17:24:33.110Z,26.44
2018-09-23T17:26:59.509Z,26.42
2018-09-23T17:29:25.892Z,26.43
2018-09-23T17:31:52.245Z,26.42
2018-09-23T17:34:18.737Z,26.41
2018-09-23T17:36:45.189Z,26.38
2018-09-23T17:39:11.731Z,26.37
2018-09-23T17:41:38.155Z,26.35
2018-09-23T17:44:04.490Z,26.35
2018-09-23T17:46:30.860Z,26.35
2018-09-23T17:48:57.215Z,26.33
2018-09-23T17:51:23.611Z,26.30
2018-09-23T17:53:49.946Z,26.28
2018-09-23T17:56:16.304Z,26.26
2018-09-23T17:58:42.722Z,26.26
2018-09-23T18:01:09.080Z,26.26
2018-09-23T18:03:35.409Z,26.24
2018-09-23T18:06:01.783Z,26.22
2018-09-23T18:08:28.172Z,26.20
2018-09-23T18:10:54.526Z,26.16
2018-09-23T18:13:20.862Z,26.15
2018-09-23T18:15:47.215Z,26.14
2018-09-23T18:18:13.578Z,26.13
2018-09-23T18:20:40.067Z,26.11
2018-09-23T18:23:06.506Z,26.10
2018-09-23T18:25:32.847Z,26.07
2018-09-23T18:27:59.222Z,26.04
2018-09-23T18:30:25.548Z,26.04
2018-09-23T18:32:51.911Z,26.05
2018-09-23T18:35:18.276Z,26.04
2018-09-23T18:37:44.691Z,26.00
2018-09-23T18:40:11.068Z,26.01
2018-09-23T18:42:37.414Z,25.98
2018-09-23T18:45:03.743Z,26.00
2018-09-23T18:47:30.075Z,25.96
2018-09-23T18:49:56.423Z,25.94
2018-09-23T18:52:22.866Z,25.95
2018-09-23T18:54:49.207Z,25.93
2018-09-23T18:57:15.629Z,25.92
2018-09-23T18:59:41.984Z,25.92
2018-09-23T19:02:08.316Z,25.90
2018-09-23T19:04:34.728Z,25.90
2018-09-23T19:07:01.058Z,25.88
2018-09-23T19:09:27.409Z,25.87
2018-09-23T19:11:53.801Z,25.91
2018-09-23T19:14:20.175Z,25.88
2018-09-23T19:16:46.516Z,25.87
2018-09-23T19:19:12.873Z,25.79
2018-09-23T19:21:39.236Z,25.77
2018-09-23T19:24:05.573Z,25.76
2018-09-23T19:26:32.024Z,25.79
2018-09-23T19:28:58.446Z,25.75
2018-09-23T19:31:24.810Z,25.76
2018-09-23T19:33:51.180Z,25.81
2018-09-23T19:36:17.541Z,25.78
2018-09-23T19:38:43.869Z,25.76
2018-09-23T19:41:10.220Z,25.72
2018-09-23T19:43:36.601Z,25.72
2018-09-23T19:46:02.994Z,25.71
2018-09-23T19:48:29.367Z,25.71
2018-09-23T19:50:55.728Z,25.71
2018-09-23T19:53:22.110Z,25.67
2018-09-23T19:55:48.509Z,25.67
2018-09-23T19:58:14.843Z,25.64
2018-09-23T20:00:41.208Z,25.68
2018-09-23T20:03:07.582Z,25.62
2018-09-23T20:05:33.919Z,25.63
2018-09-23T20:08:00.292Z,25.64
2018-09-23T20:10:26.675Z,25.62
2018-09-23T20:12:53.011Z,25.60
2018-09-23T20:15:19.442Z,25.59
2018-09-23T20:17:45.820Z,25.58
2018-09-23T20:20:12.181Z,25.57
2018-09-23T20:22:38.507Z,25.55
2018-09-23T20:25:04.839Z,25.55
2018-09-23T20:27:31.249Z,25.53
2018-09-23T20:29:57.624Z,25.54
2018-09-23T20:32:24.058Z,25.52
2018-09-23T20:34:50.395Z,25.48
2018-09-23T20:37:16.774Z,25.49
2018-09-23T20:39:43.138Z,25.48
2018-09-23T20:42:09.492Z,25.48
2018-09-23T20:44:35.867Z,25.47
2018-09-23T20:47:02.253Z,25.45
2018-09-23T20:49:28.699Z,25.42
2018-09-23T20:51:55.031Z,25.41
2018-09-23T20:54:21.456Z,25.44
2018-09-23T20:56:47.845Z,25.41
2018-09-23T20:59:14.214Z,25.40
2018-09-23T21:01:40.572Z,25.40
2018-09-23T21:04:06.905Z,25.40
2018-09-23T21:06:33.281Z,25.38
2018-09-23T21:08:59.736Z,25.36
2018-09-23T21:11:26.088Z,25.35
2018-09-23T21:13:52.419Z,25.33
2018-09-23T21:16:18.802Z,25.32
2018-09-23T21:18:45.163Z,25.32
2018-09-23T21:21:11.560Z,25.31
2018-09-23T21:23:37.912Z,25.30
2018-09-23T21:26:04.257Z,25.26
2018-09-23T21:28:30.601Z,25.29
2018-09-23T21:30:56.976Z,25.26
2018-09-23T21:33:23.338Z,25.25
2018-09-23T21:35:49.780Z,25.22
2018-09-23T21:38:16.111Z,25.24
2018-09-23T21:40:42.466Z,25.23
2018-09-23T21:43:08.797Z,25.21
2018-09-23T21:45:35.146Z,25.20
2018-09-23T21:48:01.477Z,25.20
2018-09-23T21:50:27.846Z,25.20
2018-09-23T21:52:54.186Z,25.18
2018-09-23T21:55:20.813Z,25.16
2018-09-23T21:57:47.220Z,25.16
2018-09-23T22:00:13.791Z,25.15
2018-09-23T22:02:40.116Z,25.15
2018-09-23T22:05:06.472Z,25.14
2018-09-23T22:07:32.859Z,25.11
2018-09-23T22:09:59.204Z,25.10
2018-09-23T22:12:25.653Z,25.09
2018-09-23T22:14:51.992Z,25.09
2018-09-23T22:17:18.398Z,25.08
2018-09-23T22:19:44.861Z,25.08
2018-09-23T22:22:11.232Z,25.06
2018-09-23T22:24:37.630Z,25.05
2018-09-23T22:27:04.079Z,25.04
2018-09-23T22:29:30.440Z,25.03
2018-09-23T22:31:56.843Z,25.03
2018-09-23T22:34:23.208Z,25.04
2018-09-23T22:36:49.811Z,24.99
2018-09-23T22:39:16.151Z,25.00
2018-09-23T22:41:42.644Z,24.99
2018-09-23T22:44:08.995Z,24.97
2018-09-23T22:46:35.344Z,24.98
2018-09-23T22:49:01.682Z,24.98
2018-09-23T22:51:28.016Z,24.96
2018-09-23T22:53:54.356Z,24.96
2018-09-23T22:56:20.685Z,24.91
2018-09-23T22:58:49.174Z,24.95
2018-09-23T23:01:15.524Z,24.92
2018-09-23T23:03:41.884Z,24.91
2018-09-23T23:06:08.271Z,24.92
2018-09-23T23:08:34.672Z,24.89
2018-09-23T23:11:01.313Z,24.88
2018-09-23T23:13:27.671Z,24.87
2018-09-23T23:15:54.104Z,24.84
2018-09-23T23:18:20.449Z,24.86
2018-09-23T23:20:46.820Z,24.86
2018-09-23T23:23:13.143Z,24.84
2018-09-23T23:25:39.520Z,24.84
2018-09-23T23:28:05.856Z,24.80
2018-09-23T23:30:32.256Z,24.79
2018-09-23T23:32:58.588Z,24.76
2018-09-23T23:35:24.920Z,24.79
2018-09-23T23:37:51.250Z,24.76
2018-09-23T23:40:17.580Z,24.74
2018-09-23T23:42:43.907Z,24.70
2018-09-23T23:45:10.252Z,24.74
2018-09-23T23:47:36.614Z,24.68
2018-09-23T23:50:03.056Z,24.72
2018-09-23T23:52:29.436Z,24.68
2018-09-23T23:54:55.792Z,24.68
2018-09-23T23:57:22.200Z,24.67
2018-09-23T23:59:48.733Z,24.67
